sensor_id;sensor_type;location;lat;lon;timestamp;temperature;humidity
22008;DHT22;11168;56.976;24.168;2023-03-01T00:01:27;1.70;99.90
22008;DHT22;11168;56.976;24.168;2023-03-01T00:03:58;1.70;99.90
22008;DHT22;11168;56.976;24.168;2023-03-01T00:06:26;1.70;99.90
22008;DHT22;11168;56.976;24.168;2023-03-01T00:08:54;1.70;99.90
22008;DHT22;11168;56.976;24.168;2023-03-01T00:11:23;1.70;99.90
22008;DHT22;11168;56.976;24.168;2023-03-01T00:13:53;1.70;99.90
22008;DHT22;11168;56.976;24.168;2023-03-01T00:16:23;1.70;99.90
22008;DHT22;11168;56.976;24.168;2023-03-01T00:18:51;1.70;99.90
22008;DHT22;11168;56.976;24.168;2023-03-01T00:21:20;1.70;99.90
22008;DHT22;11168;56.976;24.168;2023-03-01T00:23:48;1.70;99.90
22008;DHT22;11168;56.976;24.168;2023-03-01T00:26:17;1.70;99.90
22008;DHT22;11168;56.976;24.168;2023-03-01T00:28:45;1.70;99.90
22008;DHT22;11168;56.976;24.168;2023-03-01T00:31:19;1.70;99.90
22008;DHT22;11168;56.976;24.168;2023-03-01T00:33:47;1.60;99.90
22008;DHT22;11168;56.976;24.168;2023-03-01T00:36:15;1.70;99.90
22008;DHT22;11168;56.976;24.168;2023-03-01T00:38:44;1.70;99.90
22008;DHT22;11168;56.976;24.168;2023-03-01T00:41:14;1.80;99.90
22008;DHT22;11168;56.976;24.168;2023-03-01T00:43:41;1.80;99.90
22008;DHT22;11168;56.976;24.168;2023-03-01T00:46:14;1.80;99.90
22008;DHT22;11168;56.976;24.168;2023-03-01T00:48:42;1.80;99.90
22008;DHT22;11168;56.976;24.168;2023-03-01T00:51:18;1.70;99.90
22008;DHT22;11168;56.976;24.168;2023-03-01T00:53:46;1.70;99.90
22008;DHT22;11168;56.976;24.168;2023-03-01T00:56:14;1.70;99.90
22008;DHT22;11168;56.976;24.168;2023-03-01T00:58:41;1.70;99.90
22008;DHT22;11168;56.976;24.168;2023-03-01T01:01:18;1.70;99.90
22008;DHT22;11168;56.976;24.168;2023-03-01T01:03:47;1.70;99.90
22008;DHT22;11168;56.976;24.168;2023-03-01T01:06:20;1.70;99.90
22008;DHT22;11168;56.976;24.168;2023-03-01T01:08:47;1.70;99.90
22008;DHT22;11168;56.976;24.168;2023-03-01T01:11:14;1.60;99.90
22008;DHT22;11168;56.976;24.168;2023-03-01T01:13:43;1.70;99.90
22008;DHT22;11168;56.976;24.168;2023-03-01T01:16:11;1.70;99.90
22008;DHT22;11168;56.976;24.168;2023-03-01T01:18:38;1.70;99.90
22008;DHT22;11168;56.976;24.168;2023-03-01T01:21:08;1.70;99.90
22008;DHT22;11168;56.976;24.168;2023-03-01T01:23:36;1.70;99.90
22008;DHT22;11168;56.976;24.168;2023-03-01T01:26:05;1.70;99.90
22008;DHT22;11168;56.976;24.168;2023-03-01T01:28:33;1.80;99.90
22008;DHT22;11168;56.976;24.168;2023-03-01T01:31:00;1.70;99.90
22008;DHT22;11168;56.976;24.168;2023-03-01T01:33:27;1.70;99.90
22008;DHT22;11168;56.976;24.168;2023-03-01T01:35:54;1.80;99.90
22008;DHT22;11168;56.976;24.168;2023-03-01T01:38:22;1.80;99.90
22008;DHT22;11168;56.976;24.168;2023-03-01T01:40:49;1.80;99.90
22008;DHT22;11168;56.976;24.168;2023-03-01T01:43:27;1.80;99.90
22008;DHT22;11168;56.976;24.168;2023-03-01T01:46:13;1.80;99.90
22008;DHT22;11168;56.976;24.168;2023-03-01T01:48:49;1.90;99.90
22008;DHT22;11168;56.976;24.168;2023-03-01T01:51:23;1.80;99.90
22008;DHT22;11168;56.976;24.168;2023-03-01T01:53:57;1.80;99.90
22008;DHT22;11168;56.976;24.168;2023-03-01T01:56:26;1.80;99.90
22008;DHT22;11168;56.976;24.168;2023-03-01T01:58:55;1.80;99.90
22008;DHT22;11168;56.976;24.168;2023-03-01T02:01:22;1.80;99.90
22008;DHT22;11168;56.976;24.168;2023-03-01T02:03:50;1.80;99.90
22008;DHT22;11168;56.976;24.168;2023-03-01T02:06:31;1.80;99.90
22008;DHT22;11168;56.976;24.168;2023-03-01T02:09:02;1.70;99.90
22008;DHT22;11168;56.976;24.168;2023-03-01T02:11:32;1.80;99.90
22008;DHT22;11168;56.976;24.168;2023-03-01T02:14:00;1.70;99.90
22008;DHT22;11168;56.976;24.168;2023-03-01T02:16:27;1.80;99.90
22008;DHT22;11168;56.976;24.168;2023-03-01T02:18:54;1.70;99.90
22008;DHT22;11168;56.976;24.168;2023-03-01T02:21:46;1.70;99.90
22008;DHT22;11168;56.976;24.168;2023-03-01T02:24:44;1.80;99.90
22008;DHT22;11168;56.976;24.168;2023-03-01T02:27:07;1.80;99.90
22008;DHT22;11168;56.976;24.168;2023-03-01T02:29:35;1.70;99.90
22008;DHT22;11168;56.976;24.168;2023-03-01T02:32:03;1.70;99.90
22008;DHT22;11168;56.976;24.168;2023-03-01T02:34:31;1.60;99.90
22008;DHT22;11168;56.976;24.168;2023-03-01T02:37:13;1.60;99.90
22008;DHT22;11168;56.976;24.168;2023-03-01T02:39:47;1.60;99.90
22008;DHT22;11168;56.976;24.168;2023-03-01T02:42:18;1.60;99.90
22008;DHT22;11168;56.976;24.168;2023-03-01T02:44:49;1.60;99.90
22008;DHT22;11168;56.976;24.168;2023-03-01T02:47:16;1.60;99.90
22008;DHT22;11168;56.976;24.168;2023-03-01T02:49:43;1.60;99.90
22008;DHT22;11168;56.976;24.168;2023-03-01T02:52:48;1.60;99.90
22008;DHT22;11168;56.976;24.168;2023-03-01T02:55:20;1.70;99.90
22008;DHT22;11168;56.976;24.168;2023-03-01T02:57:48;1.60;99.90
22008;DHT22;11168;56.976;24.168;2023-03-01T03:00:21;1.70;99.90
22008;DHT22;11168;56.976;24.168;2023-03-01T03:02:51;1.70;99.90
22008;DHT22;11168;56.976;24.168;2023-03-01T03:05:22;1.70;99.90
22008;DHT22;11168;56.976;24.168;2023-03-01T03:07:50;1.70;99.90
22008;DHT22;11168;56.976;24.168;2023-03-01T03:10:28;1.80;99.90
22008;DHT22;11168;56.976;24.168;2023-03-01T03:12:58;1.70;99.90
22008;DHT22;11168;56.976;24.168;2023-03-01T03:15:26;1.80;99.90
22008;DHT22;11168;56.976;24.168;2023-03-01T03:17:54;1.80;99.90
22008;DHT22;11168;56.976;24.168;2023-03-01T03:20:24;1.80;99.90
22008;DHT22;11168;56.976;24.168;2023-03-01T03:22:53;1.80;99.90
22008;DHT22;11168;56.976;24.168;2023-03-01T03:25:22;1.80;99.90
22008;DHT22;11168;56.976;24.168;2023-03-01T03:27:50;1.80;99.90
22008;DHT22;11168;56.976;24.168;2023-03-01T03:30:26;1.90;99.90
22008;DHT22;11168;56.976;24.168;2023-03-01T03:32:53;1.90;99.90
22008;DHT22;11168;56.976;24.168;2023-03-01T03:35:23;1.90;99.90
22008;DHT22;11168;56.976;24.168;2023-03-01T03:37:51;1.90;99.90
22008;DHT22;11168;56.976;24.168;2023-03-01T03:40:39;1.90;99.90
22008;DHT22;11168;56.976;24.168;2023-03-01T03:43:12;2.00;99.90
22008;DHT22;11168;56.976;24.168;2023-03-01T03:45:39;2.00;99.90
22008;DHT22;11168;56.976;24.168;2023-03-01T03:48:08;2.00;99.90
22008;DHT22;11168;56.976;24.168;2023-03-01T03:50:38;1.90;99.90
22008;DHT22;11168;56.976;24.168;2023-03-01T03:53:08;2.00;99.90
22008;DHT22;11168;56.976;24.168;2023-03-01T03:55:35;2.00;99.90
22008;DHT22;11168;56.976;24.168;2023-03-01T03:58:07;2.00;99.90
22008;DHT22;11168;56.976;24.168;2023-03-01T04:00:41;2.00;99.90
22008;DHT22;11168;56.976;24.168;2023-03-01T04:03:09;2.00;99.90
22008;DHT22;11168;56.976;24.168;2023-03-01T04:05:37;2.00;99.90
22008;DHT22;11168;56.976;24.168;2023-03-01T04:08:06;2.10;99.90
22008;DHT22;11168;56.976;24.168;2023-03-01T04:10:39;2.10;99.90
22008;DHT22;11168;56.976;24.168;2023-03-01T04:13:09;2.00;99.90
22008;DHT22;11168;56.976;24.168;2023-03-01T04:15:37;2.10;99.90
22008;DHT22;11168;56.976;24.168;2023-03-01T04:18:04;2.10;99.90
22008;DHT22;11168;56.976;24.168;2023-03-01T04:20:33;2.10;99.90
22008;DHT22;11168;56.976;24.168;2023-03-01T04:23:10;2.10;99.90
22008;DHT22;11168;56.976;24.168;2023-03-01T04:25:44;2.10;99.90
22008;DHT22;11168;56.976;24.168;2023-03-01T04:28:11;2.10;99.90
22008;DHT22;11168;56.976;24.168;2023-03-01T04:30:39;2.10;99.90
22008;DHT22;11168;56.976;24.168;2023-03-01T04:33:09;2.10;99.90
22008;DHT22;11168;56.976;24.168;2023-03-01T04:35:37;2.20;99.90
22008;DHT22;11168;56.976;24.168;2023-03-01T04:38:05;2.10;99.90
22008;DHT22;11168;56.976;24.168;2023-03-01T04:40:33;2.20;99.90
22008;DHT22;11168;56.976;24.168;2023-03-01T04:43:00;2.20;99.90
22008;DHT22;11168;56.976;24.168;2023-03-01T04:45:27;2.20;99.90
22008;DHT22;11168;56.976;24.168;2023-03-01T04:47:54;2.20;99.90
22008;DHT22;11168;56.976;24.168;2023-03-01T04:50:21;2.20;99.90
22008;DHT22;11168;56.976;24.168;2023-03-01T04:52:51;2.20;99.90
22008;DHT22;11168;56.976;24.168;2023-03-01T04:55:18;2.20;99.90
22008;DHT22;11168;56.976;24.168;2023-03-01T04:57:45;2.20;99.90
22008;DHT22;11168;56.976;24.168;2023-03-01T05:00:14;2.20;99.90
22008;DHT22;11168;56.976;24.168;2023-03-01T05:05:15;2.20;99.90
22008;DHT22;11168;56.976;24.168;2023-03-01T05:07:42;2.20;99.90
22008;DHT22;11168;56.976;24.168;2023-03-01T05:10:09;2.20;99.90
22008;DHT22;11168;56.976;24.168;2023-03-01T05:12:36;2.20;99.90
22008;DHT22;11168;56.976;24.168;2023-03-01T05:15:04;2.20;99.90
22008;DHT22;11168;56.976;24.168;2023-03-01T05:17:34;2.20;99.90
22008;DHT22;11168;56.976;24.168;2023-03-01T05:20:01;2.20;99.90
22008;DHT22;11168;56.976;24.168;2023-03-01T05:22:32;2.20;99.90
22008;DHT22;11168;56.976;24.168;2023-03-01T05:24:59;2.20;99.90
22008;DHT22;11168;56.976;24.168;2023-03-01T05:27:26;2.20;99.90
22008;DHT22;11168;56.976;24.168;2023-03-01T05:29:53;2.20;99.90
22008;DHT22;11168;56.976;24.168;2023-03-01T05:32:20;2.20;99.90
22008;DHT22;11168;56.976;24.168;2023-03-01T05:34:47;2.20;99.90
22008;DHT22;11168;56.976;24.168;2023-03-01T05:37:14;2.20;99.90
22008;DHT22;11168;56.976;24.168;2023-03-01T05:39:41;2.20;99.90
22008;DHT22;11168;56.976;24.168;2023-03-01T05:42:10;2.20;99.90
22008;DHT22;11168;56.976;24.168;2023-03-01T05:44:37;2.30;99.90
22008;DHT22;11168;56.976;24.168;2023-03-01T05:47:04;2.20;99.90
22008;DHT22;11168;56.976;24.168;2023-03-01T05:49:32;2.20;99.90
22008;DHT22;11168;56.976;24.168;2023-03-01T05:51:58;2.30;99.90
22008;DHT22;11168;56.976;24.168;2023-03-01T05:54:25;2.30;99.90
22008;DHT22;11168;56.976;24.168;2023-03-01T05:56:52;2.30;99.90
22008;DHT22;11168;56.976;24.168;2023-03-01T05:59:19;2.30;99.90
22008;DHT22;11168;56.976;24.168;2023-03-01T06:01:46;2.30;99.90
22008;DHT22;11168;56.976;24.168;2023-03-01T06:04:13;2.40;99.90
22008;DHT22;11168;56.976;24.168;2023-03-01T06:06:40;2.30;99.90
22008;DHT22;11168;56.976;24.168;2023-03-01T06:09:07;2.40;99.90
22008;DHT22;11168;56.976;24.168;2023-03-01T06:11:36;2.30;99.90
22008;DHT22;11168;56.976;24.168;2023-03-01T06:14:05;2.30;99.90
22008;DHT22;11168;56.976;24.168;2023-03-01T06:16:33;2.40;99.90
22008;DHT22;11168;56.976;24.168;2023-03-01T06:18:59;2.40;99.90
22008;DHT22;11168;56.976;24.168;2023-03-01T06:21:26;2.40;99.90
22008;DHT22;11168;56.976;24.168;2023-03-01T06:23:53;2.40;99.90
22008;DHT22;11168;56.976;24.168;2023-03-01T06:26:20;2.40;99.90
22008;DHT22;11168;56.976;24.168;2023-03-01T06:28:47;2.40;99.90
22008;DHT22;11168;56.976;24.168;2023-03-01T06:31:14;2.40;99.90
22008;DHT22;11168;56.976;24.168;2023-03-01T06:33:41;2.50;99.90
22008;DHT22;11168;56.976;24.168;2023-03-01T06:36:08;2.50;99.90
22008;DHT22;11168;56.976;24.168;2023-03-01T06:38:36;2.60;99.90
22008;DHT22;11168;56.976;24.168;2023-03-01T06:41:03;2.60;99.90
22008;DHT22;11168;56.976;24.168;2023-03-01T06:43:30;2.60;99.90
22008;DHT22;11168;56.976;24.168;2023-03-01T06:45:57;2.60;99.90
22008;DHT22;11168;56.976;24.168;2023-03-01T06:48:24;2.60;99.90
22008;DHT22;11168;56.976;24.168;2023-03-01T06:50:51;2.60;99.90
22008;DHT22;11168;56.976;24.168;2023-03-01T06:53:18;2.70;99.90
22008;DHT22;11168;56.976;24.168;2023-03-01T06:55:45;2.70;99.90
22008;DHT22;11168;56.976;24.168;2023-03-01T06:58:12;2.70;99.90
22008;DHT22;11168;56.976;24.168;2023-03-01T07:00:39;2.80;99.90
22008;DHT22;11168;56.976;24.168;2023-03-01T07:03:08;2.80;99.90
22008;DHT22;11168;56.976;24.168;2023-03-01T07:05:35;2.90;99.90
22008;DHT22;11168;56.976;24.168;2023-03-01T07:08:02;3.00;99.90
22008;DHT22;11168;56.976;24.168;2023-03-01T07:10:29;2.90;99.90
22008;DHT22;11168;56.976;24.168;2023-03-01T07:12:57;2.90;99.90
22008;DHT22;11168;56.976;24.168;2023-03-01T07:15:25;3.00;99.90
22008;DHT22;11168;56.976;24.168;2023-03-01T07:17:53;3.10;99.90
22008;DHT22;11168;56.976;24.168;2023-03-01T07:20:21;3.20;99.90
22008;DHT22;11168;56.976;24.168;2023-03-01T07:22:53;3.30;99.90
22008;DHT22;11168;56.976;24.168;2023-03-01T07:25:20;3.50;99.90
22008;DHT22;11168;56.976;24.168;2023-03-01T07:27:53;3.40;99.90
22008;DHT22;11168;56.976;24.168;2023-03-01T07:30:21;3.50;99.90
22008;DHT22;11168;56.976;24.168;2023-03-01T07:32:48;3.70;99.90
22008;DHT22;11168;56.976;24.168;2023-03-01T07:35:15;4.00;99.90
22008;DHT22;11168;56.976;24.168;2023-03-01T07:37:43;4.00;99.90
22008;DHT22;11168;56.976;24.168;2023-03-01T07:40:10;4.10;99.90
22008;DHT22;11168;56.976;24.168;2023-03-01T07:42:38;4.10;99.90
22008;DHT22;11168;56.976;24.168;2023-03-01T07:45:05;4.00;99.90
22008;DHT22;11168;56.976;24.168;2023-03-01T07:47:32;4.10;99.90
22008;DHT22;11168;56.976;24.168;2023-03-01T07:49:59;4.00;99.90
22008;DHT22;11168;56.976;24.168;2023-03-01T07:52:27;3.90;99.90
22008;DHT22;11168;56.976;24.168;2023-03-01T07:54:54;4.10;99.90
22008;DHT22;11168;56.976;24.168;2023-03-01T07:57:21;4.00;99.90
22008;DHT22;11168;56.976;24.168;2023-03-01T07:59:48;4.00;99.90
22008;DHT22;11168;56.976;24.168;2023-03-01T08:02:15;4.10;99.90
22008;DHT22;11168;56.976;24.168;2023-03-01T08:04:42;4.60;99.90
22008;DHT22;11168;56.976;24.168;2023-03-01T08:07:09;5.00;99.90
22008;DHT22;11168;56.976;24.168;2023-03-01T08:09:36;5.70;99.90
22008;DHT22;11168;56.976;24.168;2023-03-01T08:12:06;6.30;99.90
22008;DHT22;11168;56.976;24.168;2023-03-01T08:14:34;6.50;99.90
22008;DHT22;11168;56.976;24.168;2023-03-01T08:17:01;6.40;99.90
22008;DHT22;11168;56.976;24.168;2023-03-01T08:19:30;6.70;99.90
22008;DHT22;11168;56.976;24.168;2023-03-01T08:21:57;6.30;99.90
22008;DHT22;11168;56.976;24.168;2023-03-01T08:24:25;6.20;99.90
22008;DHT22;11168;56.976;24.168;2023-03-01T08:26:52;7.10;99.90
22008;DHT22;11168;56.976;24.168;2023-03-01T08:29:19;7.20;99.90
22008;DHT22;11168;56.976;24.168;2023-03-01T08:31:46;7.30;99.90
22008;DHT22;11168;56.976;24.168;2023-03-01T08:34:16;7.70;99.90
22008;DHT22;11168;56.976;24.168;2023-03-01T08:36:45;8.70;99.90
22008;DHT22;11168;56.976;24.168;2023-03-01T08:39:14;8.30;99.90
22008;DHT22;11168;56.976;24.168;2023-03-01T08:41:42;8.20;99.90
22008;DHT22;11168;56.976;24.168;2023-03-01T08:44:13;8.80;99.90
22008;DHT22;11168;56.976;24.168;2023-03-01T08:46:43;9.20;99.90
22008;DHT22;11168;56.976;24.168;2023-03-01T08:49:14;8.80;99.90
22008;DHT22;11168;56.976;24.168;2023-03-01T08:51:42;8.70;99.90
22008;DHT22;11168;56.976;24.168;2023-03-01T08:54:12;9.50;99.90
22008;DHT22;11168;56.976;24.168;2023-03-01T08:56:39;9.10;99.90
22008;DHT22;11168;56.976;24.168;2023-03-01T08:59:06;9.80;99.90
22008;DHT22;11168;56.976;24.168;2023-03-01T09:01:33;9.90;99.90
22008;DHT22;11168;56.976;24.168;2023-03-01T09:04:01;10.20;99.90
22008;DHT22;11168;56.976;24.168;2023-03-01T09:06:30;10.50;99.90
22008;DHT22;11168;56.976;24.168;2023-03-01T09:08:59;11.60;99.90
22008;DHT22;11168;56.976;24.168;2023-03-01T09:11:27;11.60;99.90
22008;DHT22;11168;56.976;24.168;2023-03-01T09:13:55;11.50;99.90
22008;DHT22;11168;56.976;24.168;2023-03-01T09:16:23;12.10;99.90
22008;DHT22;11168;56.976;24.168;2023-03-01T09:18:52;12.70;99.90
22008;DHT22;11168;56.976;24.168;2023-03-01T09:21:23;12.10;99.90
22008;DHT22;11168;56.976;24.168;2023-03-01T09:24:06;11.20;99.90
22008;DHT22;11168;56.976;24.168;2023-03-01T09:26:33;11.10;99.90
22008;DHT22;11168;56.976;24.168;2023-03-01T09:29:00;10.90;99.90
22008;DHT22;11168;56.976;24.168;2023-03-01T09:31:27;10.70;99.90
22008;DHT22;11168;56.976;24.168;2023-03-01T09:33:54;10.40;99.90
22008;DHT22;11168;56.976;24.168;2023-03-01T09:36:23;10.50;99.90
22008;DHT22;11168;56.976;24.168;2023-03-01T09:38:52;11.80;99.90
22008;DHT22;11168;56.976;24.168;2023-03-01T09:41:45;12.20;99.90
22008;DHT22;11168;56.976;24.168;2023-03-01T09:46:46;12.10;99.90
22008;DHT22;11168;56.976;24.168;2023-03-01T09:49:29;11.80;99.90
22008;DHT22;11168;56.976;24.168;2023-03-01T09:52:21;11.50;99.90
22008;DHT22;11168;56.976;24.168;2023-03-01T09:54:54;11.30;99.90
22008;DHT22;11168;56.976;24.168;2023-03-01T09:57:38;12.00;99.90
22008;DHT22;11168;56.976;24.168;2023-03-01T10:05:59;12.80;99.40
22008;DHT22;11168;56.976;24.168;2023-03-01T10:08:43;11.90;99.90
22008;DHT22;11168;56.976;24.168;2023-03-01T10:11:26;12.00;99.90
22008;DHT22;11168;56.976;24.168;2023-03-01T10:14:13;12.80;99.40
22008;DHT22;11168;56.976;24.168;2023-03-01T10:19:34;13.20;98.00
22008;DHT22;11168;56.976;24.168;2023-03-01T10:22:21;15.50;95.40
22008;DHT22;11168;56.976;24.168;2023-03-01T10:24:50;13.20;94.80
22008;DHT22;11168;56.976;24.168;2023-03-01T10:27:25;13.10;98.10
22008;DHT22;11168;56.976;24.168;2023-03-01T10:30:34;13.20;98.70
22008;DHT22;11168;56.976;24.168;2023-03-01T10:33:03;13.10;97.50
22008;DHT22;11168;56.976;24.168;2023-03-01T10:35:33;15.40;94.90
22008;DHT22;11168;56.976;24.168;2023-03-01T10:38:09;14.90;92.00
22008;DHT22;11168;56.976;24.168;2023-03-01T10:40:59;14.00;93.80
22008;DHT22;11168;56.976;24.168;2023-03-01T10:43:46;14.10;95.40
22008;DHT22;11168;56.976;24.168;2023-03-01T10:46:32;13.50;95.40
22008;DHT22;11168;56.976;24.168;2023-03-01T10:49:19;14.00;93.30
22008;DHT22;11168;56.976;24.168;2023-03-01T10:51:49;13.90;94.60
22008;DHT22;11168;56.976;24.168;2023-03-01T10:54:22;13.70;93.80
22008;DHT22;11168;56.976;24.168;2023-03-01T10:56:51;13.70;95.20
22008;DHT22;11168;56.976;24.168;2023-03-01T10:59:37;14.30;95.10
22008;DHT22;11168;56.976;24.168;2023-03-01T11:02:22;14.90;90.40
22008;DHT22;11168;56.976;24.168;2023-03-01T11:07:53;14.30;86.70
22008;DHT22;11168;56.976;24.168;2023-03-01T11:10:32;13.80;88.60
22008;DHT22;11168;56.976;24.168;2023-03-01T11:13:16;13.00;91.90
22008;DHT22;11168;56.976;24.168;2023-03-01T11:16:02;12.60;95.40
22008;DHT22;11168;56.976;24.168;2023-03-01T11:18:31;12.50;94.60
22008;DHT22;11168;56.976;24.168;2023-03-01T11:21:15;12.60;95.40
22008;DHT22;11168;56.976;24.168;2023-03-01T11:23:43;13.80;92.70
22008;DHT22;11168;56.976;24.168;2023-03-01T11:26:13;15.40;91.00
22008;DHT22;11168;56.976;24.168;2023-03-01T11:28:56;14.60;85.40
22008;DHT22;11168;56.976;24.168;2023-03-01T11:31:26;14.10;84.30
22008;DHT22;11168;56.976;24.168;2023-03-01T11:34:02;15.20;80.60
22008;DHT22;11168;56.976;24.168;2023-03-01T11:36:45;15.10;78.10
22008;DHT22;11168;56.976;24.168;2023-03-01T11:45:08;14.60;83.90
22008;DHT22;11168;56.976;24.168;2023-03-01T11:48:04;14.10;87.30
22008;DHT22;11168;56.976;24.168;2023-03-01T11:50:47;13.60;85.30
22008;DHT22;11168;56.976;24.168;2023-03-01T11:56:55;12.90;86.30
22008;DHT22;11168;56.976;24.168;2023-03-01T11:59:40;14.90;83.10
22008;DHT22;11168;56.976;24.168;2023-03-01T12:05:02;14.40;69.00
22008;DHT22;11168;56.976;24.168;2023-03-01T12:10:32;15.30;71.70
22008;DHT22;11168;56.976;24.168;2023-03-01T12:21:40;14.20;72.10
22008;DHT22;11168;56.976;24.168;2023-03-01T12:29:38;11.00;92.20
22008;DHT22;11168;56.976;24.168;2023-03-01T12:32:38;10.80;92.60
22008;DHT22;11168;56.976;24.168;2023-03-01T12:38:41;8.80;99.90
22008;DHT22;11168;56.976;24.168;2023-03-01T12:49:48;7.30;99.90
22008;DHT22;11168;56.976;24.168;2023-03-01T12:52:24;7.40;99.90
22008;DHT22;11168;56.976;24.168;2023-03-01T12:54:53;7.10;99.90
22008;DHT22;11168;56.976;24.168;2023-03-01T12:57:42;7.00;99.90
22008;DHT22;11168;56.976;24.168;2023-03-01T13:00:35;7.30;99.90
22008;DHT22;11168;56.976;24.168;2023-03-01T13:05:47;7.20;99.90
22008;DHT22;11168;56.976;24.168;2023-03-01T13:08:48;7.40;99.90
22008;DHT22;11168;56.976;24.168;2023-03-01T13:11:21;7.40;99.90
22008;DHT22;11168;56.976;24.168;2023-03-01T13:13:48;7.00;99.90
22008;DHT22;11168;56.976;24.168;2023-03-01T13:16:40;6.70;99.90
22008;DHT22;11168;56.976;24.168;2023-03-01T13:21:49;6.40;99.90
22008;DHT22;11168;56.976;24.168;2023-03-01T13:24:35;6.60;99.90
22008;DHT22;11168;56.976;24.168;2023-03-01T13:29:47;6.30;99.90
22008;DHT22;11168;56.976;24.168;2023-03-01T13:32:34;6.10;99.90
22008;DHT22;11168;56.976;24.168;2023-03-01T13:37:46;6.00;99.90
22008;DHT22;11168;56.976;24.168;2023-03-01T13:42:56;5.60;99.90
22008;DHT22;11168;56.976;24.168;2023-03-01T13:45:39;5.60;99.90
22008;DHT22;11168;56.976;24.168;2023-03-01T13:48:24;5.50;99.90
22008;DHT22;11168;56.976;24.168;2023-03-01T13:50:57;5.50;99.90
22008;DHT22;11168;56.976;24.168;2023-03-01T13:53:27;5.50;99.90
22008;DHT22;11168;56.976;24.168;2023-03-01T13:56:03;5.30;99.90
22008;DHT22;11168;56.976;24.168;2023-03-01T13:58:54;5.40;99.90
22008;DHT22;11168;56.976;24.168;2023-03-01T14:01:30;5.20;99.90
22008;DHT22;11168;56.976;24.168;2023-03-01T14:03:58;5.00;99.90
22008;DHT22;11168;56.976;24.168;2023-03-01T14:06:31;5.00;99.90
22008;DHT22;11168;56.976;24.168;2023-03-01T14:09:22;4.80;99.90
22008;DHT22;11168;56.976;24.168;2023-03-01T14:12:19;4.90;99.90
22008;DHT22;11168;56.976;24.168;2023-03-01T14:14:56;4.80;99.90
22008;DHT22;11168;56.976;24.168;2023-03-01T14:20:00;4.90;99.90
22008;DHT22;11168;56.976;24.168;2023-03-01T14:22:30;4.90;99.90
22008;DHT22;11168;56.976;24.168;2023-03-01T14:25:03;4.90;99.90
22008;DHT22;11168;56.976;24.168;2023-03-01T14:27:39;4.90;99.90
22008;DHT22;11168;56.976;24.168;2023-03-01T14:30:17;4.90;99.90
22008;DHT22;11168;56.976;24.168;2023-03-01T14:33:00;4.90;99.90
22008;DHT22;11168;56.976;24.168;2023-03-01T14:35:33;4.90;99.90
22008;DHT22;11168;56.976;24.168;2023-03-01T14:38:01;4.80;99.90
22008;DHT22;11168;56.976;24.168;2023-03-01T14:40:39;4.70;99.90
22008;DHT22;11168;56.976;24.168;2023-03-01T14:43:11;4.80;99.90
22008;DHT22;11168;56.976;24.168;2023-03-01T14:45:39;4.70;99.90
22008;DHT22;11168;56.976;24.168;2023-03-01T14:48:13;4.70;99.90
22008;DHT22;11168;56.976;24.168;2023-03-01T14:50:42;4.60;99.90
22008;DHT22;11168;56.976;24.168;2023-03-01T14:53:29;4.60;99.90
22008;DHT22;11168;56.976;24.168;2023-03-01T14:56:03;4.60;99.90
22008;DHT22;11168;56.976;24.168;2023-03-01T14:58:33;4.50;99.90
22008;DHT22;11168;56.976;24.168;2023-03-01T15:01:03;4.50;99.90
22008;DHT22;11168;56.976;24.168;2023-03-01T15:03:33;4.40;99.90
22008;DHT22;11168;56.976;24.168;2023-03-01T15:06:01;4.40;99.90
22008;DHT22;11168;56.976;24.168;2023-03-01T15:08:29;4.40;99.90
22008;DHT22;11168;56.976;24.168;2023-03-01T15:11:27;4.40;99.90
22008;DHT22;11168;56.976;24.168;2023-03-01T15:13:54;4.30;99.90
22008;DHT22;11168;56.976;24.168;2023-03-01T15:16:30;4.30;99.90
22008;DHT22;11168;56.976;24.168;2023-03-01T15:19:00;4.20;99.90
22008;DHT22;11168;56.976;24.168;2023-03-01T15:21:34;4.20;99.90
22008;DHT22;11168;56.976;24.168;2023-03-01T15:24:27;4.20;99.90
22008;DHT22;11168;56.976;24.168;2023-03-01T15:26:58;4.20;99.90
22008;DHT22;11168;56.976;24.168;2023-03-01T15:29:34;4.20;99.90
22008;DHT22;11168;56.976;24.168;2023-03-01T15:32:31;4.10;99.90
22008;DHT22;11168;56.976;24.168;2023-03-01T15:35:01;4.10;99.90
22008;DHT22;11168;56.976;24.168;2023-03-01T15:37:47;4.00;99.90
22008;DHT22;11168;56.976;24.168;2023-03-01T15:42:51;4.00;99.90
22008;DHT22;11168;56.976;24.168;2023-03-01T15:45:24;4.10;99.90
22008;DHT22;11168;56.976;24.168;2023-03-01T15:47:58;4.10;99.90
22008;DHT22;11168;56.976;24.168;2023-03-01T15:50:34;4.10;99.90
22008;DHT22;11168;56.976;24.168;2023-03-01T15:53:05;4.00;99.90
22008;DHT22;11168;56.976;24.168;2023-03-01T15:55:35;4.00;99.90
22008;DHT22;11168;56.976;24.168;2023-03-01T15:58:23;4.00;99.90
22008;DHT22;11168;56.976;24.168;2023-03-01T16:00:51;4.00;99.90
22008;DHT22;11168;56.976;24.168;2023-03-01T16:03:28;4.00;99.90
22008;DHT22;11168;56.976;24.168;2023-03-01T16:05:55;4.00;99.90
22008;DHT22;11168;56.976;24.168;2023-03-01T16:08:22;3.90;99.90
22008;DHT22;11168;56.976;24.168;2023-03-01T16:10:50;3.80;99.90
22008;DHT22;11168;56.976;24.168;2023-03-01T16:13:18;3.80;99.90
22008;DHT22;11168;56.976;24.168;2023-03-01T16:15:46;3.80;99.90
22008;DHT22;11168;56.976;24.168;2023-03-01T16:18:13;3.70;99.90
22008;DHT22;11168;56.976;24.168;2023-03-01T16:20:40;3.70;99.90
22008;DHT22;11168;56.976;24.168;2023-03-01T16:23:10;3.60;99.90
22008;DHT22;11168;56.976;24.168;2023-03-01T16:25:38;3.60;99.90
22008;DHT22;11168;56.976;24.168;2023-03-01T16:28:06;3.50;99.90
22008;DHT22;11168;56.976;24.168;2023-03-01T16:30:37;3.50;99.90
22008;DHT22;11168;56.976;24.168;2023-03-01T16:33:05;3.50;99.90
22008;DHT22;11168;56.976;24.168;2023-03-01T16:35:55;3.40;99.90
22008;DHT22;11168;56.976;24.168;2023-03-01T16:38:24;3.40;99.90
22008;DHT22;11168;56.976;24.168;2023-03-01T16:40:51;3.30;99.90
22008;DHT22;11168;56.976;24.168;2023-03-01T16:43:18;3.30;99.90
22008;DHT22;11168;56.976;24.168;2023-03-01T16:45:45;3.20;99.90
22008;DHT22;11168;56.976;24.168;2023-03-01T16:48:13;3.10;99.90
22008;DHT22;11168;56.976;24.168;2023-03-01T16:50:40;3.10;99.90
22008;DHT22;11168;56.976;24.168;2023-03-01T16:53:08;3.10;99.90
22008;DHT22;11168;56.976;24.168;2023-03-01T16:55:35;3.00;99.90
22008;DHT22;11168;56.976;24.168;2023-03-01T16:58:07;3.00;99.90
22008;DHT22;11168;56.976;24.168;2023-03-01T17:00:37;3.00;99.90
22008;DHT22;11168;56.976;24.168;2023-03-01T17:03:04;2.90;99.90
22008;DHT22;11168;56.976;24.168;2023-03-01T17:05:31;2.80;99.90
22008;DHT22;11168;56.976;24.168;2023-03-01T17:07:58;2.80;99.90
22008;DHT22;11168;56.976;24.168;2023-03-01T17:10:26;2.80;99.90
22008;DHT22;11168;56.976;24.168;2023-03-01T17:12:54;2.80;99.90